createdAt,value
2022-09-28T00:29:18.697Z,0
2022-09-28T00:29:59.211Z,0
2022-09-28T00:30:39.716Z,0
2022-09-28T00:36:03.676Z,0
2022-09-28T00:36:44.182Z,0
2022-09-28T00:37:24.669Z,0
2022-09-28T00:38:05.198Z,0
2022-09-28T00:38:45.674Z,0
2022-09-28T00:39:26.150Z,0
2022-09-28T00:40:06.685Z,0
2022-09-28T00:40:47.225Z,0
2022-09-28T00:41:27.644Z,0
2022-09-28T00:42:08.118Z,0
2022-09-28T00:49:33.599Z,0
2022-09-28T00:50:14.079Z,0
2022-09-28T00:50:54.549Z,0
2022-09-28T00:51:35.017Z,0
2022-09-28T00:52:15.531Z,0
2022-09-28T00:52:55.981Z,0
2022-09-28T00:53:36.440Z,0
2022-09-28T00:54:16.914Z,0
2022-09-28T00:54:57.459Z,0
2022-09-28T01:03:03.407Z,0
2022-09-28T01:03:43.903Z,0
2022-09-28T01:04:28.021Z,0
2022-09-28T01:05:04.920Z,0
2022-09-28T01:05:45.475Z,0
2022-09-28T01:06:25.932Z,0
2022-09-28T01:07:06.402Z,0
2022-09-28T01:07:46.920Z,0
2022-09-28T01:08:27.410Z,0
2022-09-28T01:09:07.919Z,0
2022-09-28T01:16:33.326Z,0
2022-09-28T01:17:13.778Z,0
2022-09-28T01:17:54.249Z,0
2022-09-28T01:18:34.747Z,0
2022-09-28T01:19:15.215Z,0
2022-09-28T01:19:55.651Z,0
2022-09-28T01:20:36.157Z,0
2022-09-28T01:21:16.644Z,0
2022-09-28T01:21:57.105Z,0
2022-09-28T01:22:37.587Z,0
2022-09-28T01:23:18.094Z,0
2022-09-28T01:30:43.444Z,0
2022-09-28T01:31:23.924Z,0
2022-09-28T01:32:04.429Z,0
2022-09-28T01:32:44.826Z,0
2022-09-28T01:33:25.380Z,0
2022-09-28T01:34:05.825Z,0
2022-09-28T01:34:46.323Z,0
2022-09-28T01:38:25.630Z,0
2022-09-28T01:39:05.834Z,0
2022-09-28T01:39:46.344Z,0
2022-09-28T01:45:10.149Z,0
2022-09-28T01:45:50.676Z,0
2022-09-28T01:46:31.171Z,0
2022-09-28T01:47:11.588Z,0
2022-09-28T01:47:52.082Z,0
2022-09-28T01:48:32.607Z,0
2022-09-28T01:49:13.049Z,0
2022-09-28T01:49:53.496Z,0
2022-09-28T01:50:33.989Z,0
2022-09-28T01:51:14.481Z,0
2022-09-28T01:51:54.962Z,0
2022-09-28T01:59:20.268Z,0
2022-09-28T02:00:00.703Z,0
2022-09-28T02:00:41.264Z,0
2022-09-28T02:04:20.316Z,0
2022-09-28T02:05:00.693Z,0
2022-09-28T02:05:41.193Z,0
2022-09-28T02:11:05.070Z,0
2022-09-28T02:11:45.559Z,0
2022-09-28T02:12:25.998Z,0
2022-09-28T02:13:11.613Z,0
2022-09-28T02:22:33.259Z,0
2022-09-28T02:23:15.248Z,0
2022-09-28T02:23:54.840Z,0
2022-09-28T02:25:15.798Z,0
2022-09-28T02:25:56.266Z,0
2022-09-28T02:26:36.765Z,0
2022-09-28T02:27:17.300Z,0
2022-09-28T02:27:57.788Z,0
2022-09-28T02:28:38.298Z,0
2022-09-28T02:29:18.911Z,0
2022-09-28T02:29:59.274Z,0
2022-09-28T02:30:39.702Z,0
2022-09-28T02:31:20.219Z,0
2022-09-28T02:38:45.669Z,0
2022-09-28T02:39:26.175Z,0
2022-09-28T02:40:06.699Z,0
2022-09-28T02:40:47.149Z,0
2022-09-28T02:41:27.618Z,0
2022-09-28T02:42:08.081Z,0
2022-09-28T02:42:48.598Z,0
2022-09-28T02:43:29.105Z,0
2022-09-28T02:44:09.544Z,0
2022-09-28T02:44:50.055Z,0
2022-09-28T02:45:30.566Z,0
2022-09-28T02:52:55.868Z,0
2022-09-28T02:53:36.377Z,0
2022-09-28T02:54:18.857Z,0
2022-09-28T02:54:57.319Z,0
2022-09-28T02:55:37.832Z,0
2022-09-28T02:56:18.299Z,0
2022-09-28T02:56:58.773Z,0
2022-09-28T02:57:39.235Z,0
2022-09-28T02:58:19.780Z,0
2022-09-28T02:59:00.223Z,0
2022-09-28T03:06:25.536Z,0
2022-09-28T03:07:06.130Z,0
2022-09-28T03:07:46.641Z,0
2022-09-28T03:08:27.085Z,0
2022-09-28T03:09:07.597Z,0
2022-09-28T03:09:48.056Z,0
2022-09-28T03:10:28.533Z,0
2022-09-28T03:11:08.983Z,0
2022-09-28T03:11:49.458Z,0
2022-09-28T03:12:29.966Z,0
2022-09-28T03:13:10.414Z,0
2022-09-28T03:20:35.967Z,0
2022-09-28T03:21:16.434Z,0
2022-09-28T03:21:56.884Z,0
2022-09-28T03:22:37.345Z,0
2022-09-28T03:23:24.595Z,0
2022-09-28T03:23:58.420Z,0
2022-09-28T03:24:38.877Z,0
2022-09-28T03:25:19.325Z,0
2022-09-28T03:25:59.811Z,0
2022-09-28T03:26:40.302Z,0
2022-09-28T03:33:31.695Z,0
2022-09-28T03:34:12.139Z,0
2022-09-28T03:34:52.684Z,0
2022-09-28T03:40:16.644Z,0
2022-09-28T03:40:57.063Z,0
2022-09-28T03:41:37.569Z,0
2022-09-28T03:42:17.993Z,0
2022-09-28T03:42:58.479Z,0
2022-09-28T03:43:38.925Z,0
2022-09-28T03:44:19.431Z,0
2022-09-28T03:44:59.854Z,0
2022-09-28T03:45:40.386Z,0
2022-09-28T03:46:20.918Z,0
2022-09-28T03:54:26.642Z,0
2022-09-28T03:55:07.055Z,0
2022-09-28T03:55:47.527Z,0
2022-09-28T03:56:27.975Z,0
2022-09-28T03:57:08.495Z,0
2022-09-28T03:57:48.955Z,0
2022-09-28T03:58:29.401Z,0
2022-09-28T03:59:09.956Z,0
2022-09-28T03:59:50.399Z,0
2022-09-28T04:00:30.873Z,0
2022-09-28T04:08:36.713Z,0
2022-09-28T04:09:17.237Z,0
2022-09-28T04:09:57.682Z,0
2022-09-28T04:10:38.145Z,0
2022-09-28T04:11:18.711Z,0
2022-09-28T04:12:03.634Z,0
2022-09-28T04:12:39.771Z,0
2022-09-28T04:13:20.119Z,0
2022-09-28T04:14:00.624Z,0
2022-09-28T04:14:41.152Z,0
2022-09-28T04:17:41.047Z,0
2022-09-28T04:19:08.032Z,0
2022-09-28T04:20:36.548Z,0
2022-09-28T04:21:16.510Z,0
2022-09-28T04:21:56.983Z,0
2022-09-28T04:22:37.514Z,0
2022-09-28T04:23:18.004Z,0
2022-09-28T04:23:58.494Z,0
2022-09-28T04:24:38.948Z,0
2022-09-28T04:25:19.670Z,0
2022-09-28T04:26:00.043Z,0
2022-09-28T04:26:40.578Z,0
2022-09-28T04:27:21.127Z,0
2022-09-28T04:34:06.501Z,0
2022-09-28T04:34:46.969Z,0
2022-09-28T04:35:27.464Z,0
2022-09-28T04:36:08.040Z,0
2022-09-28T04:36:49.219Z,0
2022-09-28T04:37:29.710Z,0
2022-09-28T04:38:53.389Z,0
2022-09-28T04:39:31.223Z,0
2022-09-28T04:46:56.500Z,0
2022-09-28T04:47:36.980Z,0
2022-09-28T04:51:16.477Z,0
2022-09-28T04:51:57.003Z,0
2022-09-28T04:55:31.351Z,0
2022-09-28T04:56:11.760Z,0
2022-09-28T04:56:52.171Z,0
2022-09-28T05:01:35.704Z,0
2022-09-28T05:02:16.178Z,0
2022-09-28T05:02:56.670Z,0
2022-09-28T05:03:37.103Z,0
2022-09-28T05:04:19.490Z,0
2022-09-28T05:04:58.132Z,0
2022-09-28T05:06:19.100Z,0
2022-09-28T05:06:59.591Z,0
2022-09-28T05:07:40.133Z,0
2022-09-28T05:15:05.767Z,0
2022-09-28T05:15:46.291Z,0
2022-09-28T05:16:26.914Z,0
2022-09-28T05:17:07.334Z,0
2022-09-28T05:17:47.850Z,0
2022-09-28T05:18:28.344Z,0
2022-09-28T05:19:08.854Z,0
2022-09-28T05:19:49.410Z,0
2022-09-28T05:20:29.870Z,0
2022-09-28T05:21:10.297Z,0
2022-09-28T05:27:55.898Z,0
2022-09-28T05:28:36.428Z,0
2022-09-28T05:29:17.008Z,0
2022-09-28T05:29:57.418Z,0
2022-09-28T05:30:37.961Z,0
2022-09-28T05:31:18.454Z,0
2022-09-28T05:31:59.004Z,0
2022-09-28T05:32:39.588Z,0
2022-09-28T05:33:20.109Z,0
2022-09-28T05:38:45.829Z,0
2022-09-28T05:39:26.362Z,0
2022-09-28T05:40:08.908Z,0
2022-09-28T05:40:49.438Z,0
2022-09-28T05:41:31.335Z,0
2022-09-28T05:44:55.754Z,0
2022-09-28T05:45:36.302Z,0
2022-09-28T05:46:16.828Z,0
2022-09-28T05:46:57.373Z,0
2022-09-28T05:47:37.792Z,0
2022-09-28T05:48:18.395Z,0
2022-09-28T05:48:59.022Z,0
2022-09-28T05:49:39.584Z,0
2022-09-28T06:31:54.275Z,5
2022-09-28T06:32:34.427Z,5
2022-09-28T06:33:15.209Z,5
2022-09-28T06:36:39.102Z,10
2022-09-28T06:37:19.563Z,10
2022-09-28T06:38:00.106Z,10
2022-09-28T06:38:40.639Z,10
2022-09-28T06:39:21.151Z,10
2022-09-28T06:40:01.694Z,15
2022-09-28T06:40:42.237Z,15
2022-09-28T06:41:23.709Z,15
2022-09-28T06:43:30.893Z,10
2022-09-28T06:44:08.676Z,10
2022-09-28T06:47:44.672Z,10
2022-09-28T06:48:24.992Z,10
2022-09-28T06:49:06.190Z,10
2022-09-28T06:49:46.747Z,10
2022-09-28T06:51:48.531Z,10
2022-09-28T06:52:29.184Z,10
2022-09-28T06:53:09.632Z,10
2022-09-28T06:53:50.886Z,15
2022-09-28T06:54:31.440Z,15
2022-09-28T06:55:11.961Z,15
2022-09-28T06:55:52.548Z,15
2022-09-28T06:56:33.269Z,15
2022-09-28T07:00:12.731Z,10
2022-09-28T07:00:53.248Z,10
2022-09-28T07:01:34.198Z,10
2022-09-28T07:04:57.124Z,10
2022-09-28T07:05:37.835Z,10
2022-09-28T07:06:18.426Z,10
2022-09-28T07:06:59.634Z,15
2022-09-28T07:07:40.113Z,15
2022-09-28T07:11:19.439Z,15
2022-09-28T07:12:00.510Z,15
2022-09-28T07:12:41.301Z,15
2022-09-28T07:16:04.213Z,15
2022-09-28T07:17:07.511Z,10
2022-09-28T07:17:25.531Z,10
2022-09-28T07:18:06.145Z,10
2022-09-28T07:22:42.680Z,10
2022-09-28T07:23:19.551Z,10
2022-09-28T07:23:58.022Z,10
2022-09-28T07:24:38.672Z,15
2022-09-28T07:27:26.848Z,20
2022-09-28T07:28:03.201Z,20
2022-09-28T07:30:43.040Z,15
2022-09-28T07:31:23.675Z,15
2022-09-28T07:32:04.097Z,15
2022-09-28T07:36:47.835Z,10
2022-09-28T07:37:28.343Z,10
2022-09-28T07:38:08.843Z,10
2022-09-28T07:38:49.410Z,10
2022-09-28T07:39:29.961Z,10
2022-09-28T07:40:10.550Z,10
2022-09-28T07:40:51.079Z,10
2022-09-28T07:41:31.570Z,10
2022-09-28T07:42:12.161Z,10
2022-09-28T07:42:52.690Z,10
2022-09-28T07:48:57.772Z,15
2022-09-28T07:49:38.203Z,15
2022-09-28T07:50:18.660Z,15
2022-09-28T07:50:59.246Z,10
2022-09-28T07:53:37.787Z,10
2022-09-28T07:54:18.585Z,10
2022-09-28T07:55:01.300Z,10
2022-09-28T07:55:43.807Z,10
2022-09-28T07:56:24.497Z,10
2022-09-28T07:57:06.218Z,15
2022-09-28T07:57:46.322Z,15
2022-09-28T07:58:27.026Z,15
2022-09-28T08:03:53.727Z,30
2022-09-28T08:04:34.286Z,35
2022-09-28T08:05:14.771Z,35
2022-09-28T08:05:55.287Z,35
2022-09-28T08:06:35.892Z,35
2022-09-28T08:07:19.460Z,35
2022-09-28T08:07:57.328Z,30
2022-09-28T08:12:37.732Z,20
2022-09-28T08:13:18.754Z,20
2022-09-28T08:13:59.220Z,20
2022-09-28T08:17:22.391Z,20
2022-09-28T08:18:02.978Z,20
2022-09-28T08:18:43.356Z,20
2022-09-28T08:19:24.068Z,20
2022-09-28T08:20:04.496Z,20
2022-09-28T08:20:48.074Z,20
2022-09-28T08:23:21.694Z,20
2022-09-28T08:25:35.218Z,20
2022-09-28T08:26:16.315Z,20
2022-09-28T08:26:57.312Z,20
2022-09-28T08:28:19.477Z,20
2022-09-28T08:29:00.621Z,20
2022-09-28T08:32:29.897Z,20
2022-09-28T08:33:10.902Z,20
2022-09-28T08:36:51.556Z,25
2022-09-28T08:37:32.519Z,30
2022-09-28T08:38:14.324Z,30
2022-09-28T08:38:55.336Z,30
2022-09-28T08:39:37.572Z,30
2022-09-28T08:40:18.901Z,30
2022-09-28T08:40:59.862Z,30
2022-09-28T08:44:25.982Z,25
2022-09-28T08:47:45.796Z,30
2022-09-28T08:48:26.336Z,30
2022-09-28T08:49:24.837Z,30
2022-09-28T08:49:47.379Z,30
2022-09-28T08:53:50.502Z,35
2022-09-28T08:54:30.974Z,30
2022-09-28T08:55:11.482Z,30
2022-09-28T08:55:52.067Z,30
2022-09-28T08:56:32.483Z,30
2022-09-28T08:57:12.979Z,30
2022-09-28T08:57:53.591Z,35
2022-09-28T08:58:34.040Z,35
2022-09-28T08:59:14.553Z,35
2022-09-28T08:59:55.165Z,35
2022-09-28T09:05:20.481Z,35
2022-09-28T09:06:00.995Z,35
2022-09-28T09:06:41.525Z,35
2022-09-28T09:07:22.001Z,40
2022-09-28T09:08:02.571Z,35
2022-09-28T09:08:43.135Z,35
2022-09-28T09:09:23.675Z,35
2022-09-28T09:10:04.220Z,40
2022-09-28T09:10:44.766Z,40
2022-09-28T09:11:25.375Z,40
2022-09-28T09:18:10.793Z,30
2022-09-28T09:18:51.597Z,30
2022-09-28T09:19:32.019Z,30
2022-09-28T09:20:12.613Z,35
2022-09-28T09:20:53.740Z,35
2022-09-28T09:21:34.330Z,40
2022-09-28T09:22:14.948Z,40
2022-09-28T09:22:55.526Z,40
2022-09-28T09:29:40.693Z,45
2022-09-28T09:30:21.245Z,45
2022-09-28T09:31:01.870Z,45
2022-09-28T09:31:42.362Z,45
2022-09-28T09:32:22.921Z,50
2022-09-28T09:33:03.605Z,55
2022-09-28T09:33:45.444Z,55
2022-09-28T09:41:02.889Z,40
2022-09-28T09:41:43.310Z,40
2022-09-28T09:42:23.836Z,40
2022-09-28T09:43:04.331Z,40
2022-09-28T09:46:28.056Z,40
2022-09-28T09:47:08.598Z,35
2022-09-28T09:47:49.182Z,35
2022-09-28T09:48:29.712Z,35
2022-09-28T09:49:10.282Z,30
2022-09-28T09:49:50.969Z,30
2022-09-28T09:50:31.385Z,30
2022-09-28T09:51:11.920Z,30
2022-09-28T09:56:32.930Z,30
2022-09-28T09:57:13.743Z,30
2022-09-28T09:57:54.252Z,35
2022-09-28T09:58:34.781Z,35
2022-09-28T10:01:58.571Z,30
2022-09-28T10:02:39.084Z,30
2022-09-28T10:03:19.547Z,30
2022-09-28T10:04:00.053Z,35
2022-09-28T10:04:40.535Z,35
2022-09-28T10:07:33.848Z,35
2022-09-28T10:08:14.419Z,35
2022-09-28T10:08:55.027Z,35
2022-09-28T10:13:38.949Z,40
2022-09-28T10:14:19.446Z,40
2022-09-28T10:14:59.944Z,40
2022-09-28T10:15:40.440Z,40
2022-09-28T10:16:21.043Z,40
2022-09-28T10:17:01.698Z,40
2022-09-28T10:17:42.192Z,40
2022-09-28T10:18:22.749Z,40
2022-09-28T10:19:03.353Z,60
2022-09-28T10:25:48.501Z,50
2022-09-28T10:26:29.040Z,45
2022-09-28T10:27:09.748Z,50
2022-09-28T10:27:50.270Z,45
2022-09-28T10:28:30.795Z,45
2022-09-28T10:29:11.372Z,45
2022-09-28T10:29:51.907Z,45
2022-09-28T10:30:32.393Z,45
2022-09-28T10:35:58.626Z,50
2022-09-28T10:36:39.371Z,50
2022-09-28T10:37:20.228Z,50
2022-09-28T10:38:01.945Z,50
2022-09-28T10:38:42.236Z,50
2022-09-28T10:39:22.700Z,50
2022-09-28T10:42:00.946Z,55
2022-09-28T10:42:41.516Z,55
2022-09-28T10:43:21.973Z,55
2022-09-28T10:44:02.467Z,55
2022-09-28T10:48:06.004Z,60
2022-09-28T10:48:46.516Z,60
2022-09-28T10:54:04.881Z,50
2022-09-28T10:54:45.461Z,55
2022-09-28T10:55:25.883Z,50
2022-09-28T10:56:06.421Z,45
2022-09-28T11:00:11.087Z,40
2022-09-28T11:00:51.581Z,45
2022-09-28T11:01:32.148Z,45
2022-09-28T11:02:12.581Z,40
2022-09-28T11:02:53.111Z,40
2022-09-28T11:03:33.642Z,35
2022-09-28T11:05:52.327Z,30
2022-09-28T11:06:33.412Z,30
2022-09-28T11:07:15.375Z,30
2022-09-28T11:07:55.330Z,30
2022-09-28T11:08:37.310Z,30
2022-09-28T11:09:19.614Z,30
2022-09-28T11:10:00.606Z,30
2022-09-28T11:13:27.664Z,25
2022-09-28T11:14:08.694Z,20
2022-09-28T11:14:49.735Z,20
2022-09-28T11:15:30.733Z,20
2022-09-28T11:16:11.812Z,20
2022-09-28T11:18:56.864Z,30
2022-09-28T11:19:37.856Z,30
2022-09-28T11:20:24.781Z,30
2022-09-28T11:21:00.812Z,35
2022-09-28T11:23:46.818Z,35
2022-09-28T11:24:27.873Z,35
2022-09-28T11:25:08.819Z,35
2022-09-28T11:28:48.511Z,35
2022-09-28T11:29:29.063Z,35
2022-09-28T11:30:09.663Z,40
2022-09-28T11:30:50.222Z,40
2022-09-28T11:33:33.507Z,35
2022-09-28T11:34:14.001Z,40
2022-09-28T11:34:59.390Z,40
2022-09-28T11:35:34.945Z,30
2022-09-28T11:36:15.586Z,30
2022-09-28T11:38:43.635Z,30
2022-09-28T11:39:25.047Z,25
2022-09-28T11:40:05.574Z,25
2022-09-28T11:40:46.071Z,20
2022-09-28T11:42:48.453Z,20
2022-09-28T11:43:29.052Z,20
2022-09-28T11:44:09.589Z,25
2022-09-28T11:44:50.035Z,25
2022-09-28T11:47:23.063Z,25
2022-09-28T11:48:03.580Z,25
2022-09-28T11:48:45.856Z,25
2022-09-28T11:49:25.587Z,25
2022-09-28T11:52:07.696Z,25
2022-09-28T11:52:48.840Z,25
2022-09-28T11:53:29.340Z,25
2022-09-28T11:54:09.942Z,25
2022-09-28T11:54:51.421Z,25
2022-09-28T12:32:42.335Z,20
2022-09-28T12:33:22.622Z,25
2022-09-28T12:36:56.827Z,20
2022-09-28T12:37:37.248Z,20
2022-09-28T12:38:17.716Z,20
2022-09-28T12:43:41.778Z,15
2022-09-28T12:44:22.338Z,15
2022-09-28T12:45:02.770Z,15
2022-09-28T12:46:06.998Z,15
2022-09-28T12:46:23.879Z,15
2022-09-28T12:47:04.395Z,15
2022-09-28T12:47:44.783Z,15
2022-09-28T12:48:25.308Z,15
2022-09-28T12:56:31.353Z,15
2022-09-28T12:57:11.902Z,15
2022-09-28T12:57:52.379Z,15
2022-09-28T12:58:32.927Z,20
2022-09-28T12:59:13.448Z,20
2022-09-28T12:59:53.928Z,20
2022-09-28T13:00:34.418Z,20
2022-09-28T13:01:14.941Z,20
2022-09-28T13:01:55.442Z,20
2022-09-28T13:02:35.959Z,20
2022-09-28T13:09:21.798Z,25
2022-09-28T13:10:02.270Z,25
2022-09-28T13:10:42.943Z,25
2022-09-28T13:11:23.418Z,25
2022-09-28T13:16:11.905Z,25
2022-09-28T13:16:54.371Z,25
2022-09-28T13:17:32.943Z,20
2022-09-28T13:18:54.000Z,20
2022-09-28T13:19:34.447Z,20
2022-09-28T13:20:14.934Z,20
2022-09-28T13:27:41.801Z,20
2022-09-28T13:28:25.033Z,20
2022-09-28T13:29:02.886Z,20
2022-09-28T13:29:43.417Z,20
2022-09-28T13:30:24.031Z,20
2022-09-28T13:31:04.456Z,20
2022-09-28T13:31:44.970Z,20
2022-09-28T13:32:25.555Z,20
2022-09-28T13:33:06.047Z,20
2022-09-28T13:40:31.924Z,20
2022-09-28T13:41:12.462Z,25
2022-09-28T13:41:52.923Z,20
2022-09-28T13:42:33.439Z,20
2022-09-28T13:43:17.537Z,25
2022-09-28T13:43:54.449Z,20
2022-09-28T13:44:35.058Z,20
2022-09-28T13:45:15.526Z,25
2022-09-28T13:45:56.044Z,35
2022-09-28T13:53:21.655Z,35
2022-09-28T13:54:02.131Z,30
2022-09-28T13:54:42.649Z,35
2022-09-28T13:55:23.165Z,35
2022-09-28T13:56:03.706Z,30
2022-09-28T13:56:44.227Z,25
2022-09-28T13:57:24.711Z,25
2022-09-28T13:58:05.214Z,25
2022-09-28T13:58:45.686Z,35
2022-09-28T13:59:26.195Z,30
2022-09-28T14:06:11.634Z,25
2022-09-28T14:06:53.509Z,25
2022-09-28T14:07:32.550Z,25
2022-09-28T14:08:13.051Z,25
2022-09-28T14:08:53.539Z,25
2022-09-28T14:09:34.067Z,25
2022-09-28T14:10:14.627Z,25
2022-09-28T14:10:55.110Z,25
2022-09-28T14:11:35.597Z,25
2022-09-28T14:12:16.115Z,25
2022-09-28T14:19:41.521Z,30
2022-09-28T14:20:22.017Z,30
2022-09-28T14:21:02.679Z,30
2022-09-28T14:21:43.177Z,40
2022-09-28T14:22:23.662Z,30
2022-09-28T14:23:04.178Z,30
2022-09-28T14:23:44.766Z,40
2022-09-28T14:24:25.167Z,30
2022-09-28T14:25:05.686Z,25
2022-09-28T14:25:46.221Z,25
2022-09-28T14:31:51.819Z,25
2022-09-28T14:32:32.363Z,25
2022-09-28T14:33:12.968Z,25
2022-09-28T14:33:56.118Z,25
2022-09-28T14:40:43.736Z,20
2022-09-28T14:41:21.895Z,20
2022-09-28T14:42:02.368Z,20
2022-09-28T14:42:42.956Z,15
2022-09-28T14:43:23.432Z,15
2022-09-28T14:44:03.927Z,15
2022-09-28T14:44:44.465Z,15
2022-09-28T14:45:24.969Z,15
2022-09-28T14:46:05.507Z,15
2022-09-28T14:46:46.005Z,15
2022-09-28T14:54:11.658Z,10
2022-09-28T14:54:52.060Z,10
2022-09-28T14:55:32.554Z,10
2022-09-28T14:56:13.215Z,10
2022-09-28T14:56:53.757Z,10
2022-09-28T14:57:34.241Z,10
2022-09-28T14:58:14.730Z,10
2022-09-28T14:58:55.641Z,10
2022-09-28T14:59:35.988Z,10
2022-09-28T15:07:01.691Z,10
2022-09-28T15:07:42.118Z,10
2022-09-28T15:08:22.615Z,10
2022-09-28T15:09:03.212Z,10
2022-09-28T15:09:43.665Z,10
2022-09-28T15:10:27.634Z,10
2022-09-28T15:11:04.637Z,10
2022-09-28T15:11:45.175Z,10
2022-09-28T15:12:25.720Z,10
2022-09-28T15:13:06.198Z,10
2022-09-28T15:19:51.382Z,20
2022-09-28T15:20:32.133Z,20
2022-09-28T15:21:12.672Z,20
2022-09-28T15:21:53.126Z,15
2022-09-28T15:22:33.578Z,15
2022-09-28T15:23:14.074Z,15
2022-09-28T15:23:54.574Z,15
2022-09-28T15:24:35.092Z,15
2022-09-28T15:25:15.611Z,10
2022-09-28T15:25:56.110Z,10
2022-09-28T15:32:41.389Z,10
2022-09-28T15:33:21.887Z,10
2022-09-28T15:34:02.327Z,10
2022-09-28T15:34:42.838Z,10
2022-09-28T15:35:23.315Z,10
2022-09-28T15:36:03.862Z,10
2022-09-28T15:36:44.333Z,10
2022-09-28T15:37:24.810Z,10
2022-09-28T15:38:05.355Z,10
2022-09-28T15:38:45.894Z,10
2022-09-28T15:46:11.819Z,15
2022-09-28T15:46:52.303Z,10
2022-09-28T15:47:32.791Z,10
2022-09-28T15:48:13.322Z,10
2022-09-28T15:48:53.811Z,10
2022-09-28T15:49:38.132Z,10
2022-09-28T15:50:14.762Z,10
2022-09-28T15:50:55.321Z,10
2022-09-28T15:51:35.802Z,10
2022-09-28T15:52:16.326Z,10
2022-09-28T15:59:01.333Z,5
2022-09-28T15:59:41.885Z,5
2022-09-28T16:00:22.407Z,5
2022-09-28T16:01:03.045Z,5
2022-09-28T16:01:43.504Z,5
2022-09-28T16:02:23.948Z,5
2022-09-28T16:03:04.537Z,5
2022-09-28T16:03:44.942Z,5
2022-09-28T16:04:25.478Z,5
2022-09-28T16:05:05.960Z,5
2022-09-28T16:05:46.437Z,5
2022-09-28T16:12:31.375Z,5
2022-09-28T16:13:11.901Z,5
2022-09-28T16:13:52.439Z,5
2022-09-28T16:14:32.935Z,5
2022-09-28T16:15:13.401Z,5
2022-09-28T16:15:53.906Z,5
2022-09-28T16:16:34.424Z,5
2022-09-28T16:17:14.887Z,5
2022-09-28T16:17:55.364Z,5
2022-09-28T16:18:35.889Z,5
2022-09-28T16:26:01.564Z,5
2022-09-28T16:26:42.078Z,5
2022-09-28T16:27:22.640Z,5
2022-09-28T16:28:03.070Z,5
2022-09-28T16:28:43.563Z,5
2022-09-28T16:29:24.035Z,5
2022-09-28T16:30:04.595Z,5
2022-09-28T16:30:45.060Z,5
2022-09-28T16:31:25.553Z,5
2022-09-28T16:32:06.045Z,5
2022-09-28T16:39:31.423Z,0
2022-09-28T16:40:11.888Z,0
2022-09-28T16:40:52.445Z,0
2022-09-28T16:41:32.899Z,0
2022-09-28T16:42:13.356Z,0
2022-09-28T16:42:53.900Z,0
2022-09-28T16:43:34.343Z,0
2022-09-28T16:44:14.835Z,0
2022-09-28T16:44:55.308Z,0
2022-09-28T16:45:35.786Z,0
2022-09-28T16:48:14.421Z,0
2022-09-28T16:48:54.975Z,0
2022-09-28T16:49:35.455Z,0
2022-09-28T16:54:55.720Z,0
2022-09-28T16:55:40.348Z,0
2022-09-28T16:56:16.641Z,0
2022-09-28T17:01:40.767Z,0
2022-09-28T17:02:42.528Z,0
2022-09-28T17:03:01.749Z,0
2022-09-28T17:03:42.315Z,0
2022-09-28T17:04:22.642Z,0
2022-09-28T17:05:03.144Z,0
2022-09-28T17:05:43.635Z,0
2022-09-28T17:06:24.088Z,0
2022-09-28T17:07:04.633Z,0
2022-09-28T17:07:45.067Z,0
2022-09-28T17:15:10.573Z,0
2022-09-28T17:15:51.105Z,0
2022-09-28T17:16:57.610Z,0
2022-09-28T17:17:16.367Z,0
2022-09-28T17:17:52.586Z,0
2022-09-28T17:18:32.998Z,0
2022-09-28T17:19:13.472Z,0
2022-09-28T17:19:54.079Z,0
2022-09-28T17:20:34.448Z,0
2022-09-28T17:21:14.969Z,0
2022-09-28T17:28:00.383Z,0
2022-09-28T17:28:40.527Z,0
2022-09-28T17:29:21.012Z,0
2022-09-28T17:30:01.524Z,0
2022-09-28T17:30:42.026Z,0
2022-09-28T17:31:22.531Z,0
2022-09-28T17:32:02.949Z,0
2022-09-28T17:32:43.433Z,0
2022-09-28T17:33:23.946Z,0
2022-09-28T17:34:04.410Z,0
2022-09-28T17:42:10.509Z,0
2022-09-28T17:42:50.991Z,0
2022-09-28T17:43:31.537Z,0
2022-09-28T17:44:12.004Z,0
2022-09-28T17:44:52.499Z,0
2022-09-28T17:45:32.921Z,0
2022-09-28T17:46:13.463Z,0
2022-09-28T17:46:53.904Z,0
2022-09-28T17:47:34.561Z,0
2022-09-28T17:48:14.883Z,0
2022-09-28T17:48:55.412Z,0
2022-09-28T18:34:36.995Z,0
2022-09-28T18:35:22.093Z,0
2022-09-28T18:35:57.967Z,0
2022-09-28T18:36:38.409Z,0
2022-09-28T18:41:21.813Z,0
2022-09-28T18:42:02.412Z,0
2022-09-28T18:42:42.896Z,0
2022-09-28T18:43:23.379Z,0
2022-09-28T18:44:03.864Z,0
2022-09-28T18:44:44.416Z,0
2022-09-28T18:45:24.848Z,0
2022-09-28T18:46:05.385Z,0
2022-09-28T18:46:46.353Z,0
2022-09-28T18:52:12.079Z,0
2022-09-28T18:52:52.693Z,0
2022-09-28T18:53:33.150Z,0
2022-09-28T18:54:13.647Z,0
2022-09-28T18:54:54.100Z,0
2022-09-28T18:55:35.421Z,0
2022-09-28T18:56:15.913Z,0
2022-09-28T18:56:56.402Z,0
2022-09-28T19:05:09.213Z,0
2022-09-28T19:05:49.746Z,0
2022-09-28T19:06:30.216Z,0
2022-09-28T19:11:13.913Z,0
2022-09-28T19:11:54.409Z,0
2022-09-28T19:12:34.983Z,0
2022-09-28T19:13:15.523Z,0
2022-09-28T19:13:56.060Z,0
2022-09-28T19:17:27.931Z,0
2022-09-28T19:18:08.754Z,0
2022-09-28T19:18:49.767Z,0
2022-09-28T19:20:11.887Z,0
2022-09-28T19:20:52.882Z,0
2022-09-28T19:21:33.928Z,0
2022-09-28T19:22:14.801Z,0
2022-09-28T19:22:56.005Z,0
2022-09-28T19:25:50.514Z,0
2022-09-28T19:26:30.980Z,0
2022-09-28T19:27:11.463Z,0
2022-09-28T19:27:51.967Z,0
2022-09-28T19:32:35.399Z,0
2022-09-28T19:33:15.938Z,0
2022-09-28T19:33:56.462Z,0
2022-09-28T19:34:36.962Z,0
2022-09-28T19:35:17.462Z,0
2022-09-28T19:35:58.027Z,0
2022-09-28T19:36:38.514Z,0
2022-09-28T19:37:18.989Z,0
2022-09-28T19:37:59.518Z,0
2022-09-28T19:38:39.994Z,0
2022-09-28T19:46:05.619Z,0
2022-09-28T19:46:46.109Z,0
2022-09-28T19:47:26.597Z,0
2022-09-28T19:48:07.060Z,0
2022-09-28T19:48:47.565Z,0
2022-09-28T19:49:28.077Z,0
2022-09-28T19:50:08.484Z,0
2022-09-28T19:50:49.019Z,0
2022-09-28T19:51:29.520Z,0
2022-09-28T19:52:14.549Z,0
2022-09-28T19:59:35.541Z,0
2022-09-28T20:00:16.049Z,0
2022-09-28T20:00:56.595Z,0
2022-09-28T20:01:37.128Z,0
2022-09-28T20:02:17.572Z,0
2022-09-28T20:02:58.109Z,0
2022-09-28T20:03:38.505Z,0
2022-09-28T20:04:19.061Z,0
2022-09-28T20:04:59.433Z,0
2022-09-28T20:05:39.909Z,0
2022-09-28T20:11:45.304Z,0
2022-09-28T20:12:25.782Z,0
2022-09-28T20:13:06.280Z,0
2022-09-28T20:13:46.771Z,0
2022-09-28T20:14:31.969Z,0
2022-09-28T20:15:07.724Z,0
2022-09-28T20:15:48.260Z,0
2022-09-28T20:16:28.728Z,0
2022-09-28T20:17:09.213Z,0
2022-09-28T20:17:49.680Z,0
2022-09-28T20:18:30.182Z,0
2022-09-28T20:25:55.525Z,0
2022-09-28T20:26:35.988Z,0
2022-09-28T20:27:16.566Z,0
2022-09-28T20:27:57.058Z,0
2022-09-28T20:28:37.562Z,0
2022-09-28T20:29:18.211Z,0
2022-09-28T20:29:58.529Z,0
2022-09-28T20:30:39.010Z,0
2022-09-28T20:31:19.548Z,0
2022-09-28T20:32:00.005Z,0
2022-09-28T20:39:25.378Z,0
2022-09-28T20:40:05.948Z,0
2022-09-28T20:40:46.505Z,0
2022-09-28T20:41:26.983Z,0
2022-09-28T20:42:07.493Z,0
2022-09-28T20:42:48.024Z,0
2022-09-28T20:43:28.546Z,0
2022-09-28T20:44:09.047Z,0
2022-09-28T20:44:49.548Z,0
2022-09-28T20:45:30.052Z,0
2022-09-28T20:52:55.500Z,0
2022-09-28T20:53:36.009Z,0
2022-09-28T20:54:16.528Z,0
2022-09-28T20:54:57.016Z,0
2022-09-28T20:55:37.510Z,0
2022-09-28T20:56:18.033Z,0
2022-09-28T20:56:58.509Z,0
2022-09-28T20:58:19.581Z,0
2022-09-28T20:59:00.121Z,0
2022-09-28T21:05:05.219Z,0
2022-09-28T21:05:45.690Z,0
2022-09-28T21:06:26.261Z,0
2022-09-28T21:07:06.628Z,0
2022-09-28T21:07:47.109Z,0
2022-09-28T21:08:27.581Z,0
2022-09-28T21:09:08.618Z,0
2022-09-28T21:09:55.883Z,0
2022-09-28T21:10:36.374Z,0
2022-09-28T21:11:16.884Z,0
2022-09-28T21:11:57.388Z,0
2022-09-28T21:12:37.868Z,0
2022-09-28T21:13:18.349Z,0
2022-09-28T21:14:05.566Z,0
2022-09-28T21:14:46.100Z,0
2022-09-28T21:15:26.597Z,0
2022-09-28T21:16:07.117Z,0
2022-09-28T21:16:47.576Z,0
2022-09-28T21:17:28.051Z,0
2022-09-28T21:18:08.571Z,0
2022-09-28T21:18:49.008Z,0
2022-09-28T21:19:29.490Z,0
2022-09-28T21:20:09.986Z,0
2022-09-28T21:27:35.439Z,0
2022-09-28T21:28:15.928Z,0
2022-09-28T21:28:56.390Z,0
2022-09-28T21:29:36.930Z,0
2022-09-28T21:30:17.373Z,0
2022-09-28T21:30:57.897Z,0
2022-09-28T21:31:38.471Z,0
2022-09-28T21:32:18.867Z,0
2022-09-28T21:32:59.338Z,0
2022-09-28T21:33:39.808Z,0
2022-09-28T21:41:05.258Z,0
2022-09-28T21:41:45.851Z,0
2022-09-28T21:42:26.324Z,0
2022-09-28T21:43:06.776Z,0
2022-09-28T21:43:47.254Z,0
2022-09-28T21:44:27.768Z,0
2022-09-28T21:45:08.258Z,0
2022-09-28T21:45:48.751Z,0
2022-09-28T21:46:29.265Z,0
2022-09-28T21:47:09.707Z,0
2022-09-28T21:47:50.197Z,0
2022-09-28T21:55:15.647Z,0
2022-09-28T21:55:56.157Z,0
2022-09-28T21:56:36.641Z,0
2022-09-28T21:57:17.117Z,0
2022-09-28T21:57:57.642Z,0